createdAt,value
2019-05-23T00:03:29.950Z,65.44
2019-05-23T00:08:36.340Z,65.07
2019-05-23T00:14:00.635Z,64.78
2019-05-23T00:19:05.703Z,65.11
2019-05-23T00:24:10.912Z,65.13
2019-05-23T00:29:16.954Z,65.25
2019-05-23T00:34:22.067Z,65.33
2019-05-23T00:39:27.332Z,65.45
2019-05-23T00:44:31.989Z,66.02
2019-05-23T00:49:37.503Z,66.11
2019-05-23T01:06:28.512Z,66.58
2019-05-23T01:11:35.352Z,66.28
2019-05-23T01:16:49.571Z,66.62
2019-05-23T01:22:07.311Z,66.62
2019-05-23T01:37:39.716Z,67.48
2019-05-23T01:42:44.449Z,67.62
2019-05-23T01:47:50.418Z,67.58
2019-05-23T01:52:55.887Z,67.62
2019-05-23T01:58:00.506Z,67.62
2019-05-23T02:03:05.425Z,68.20
2019-05-23T02:08:13.779Z,68.18
2019-05-23T02:13:20.053Z,67.78
2019-05-23T02:18:26.395Z,67.98
2019-05-23T02:23:30.968Z,68.43
2019-05-23T02:28:36.098Z,68.24
2019-05-23T02:33:41.728Z,68.50
2019-05-23T02:39:08.236Z,68.46
2019-05-23T02:44:20.237Z,68.25
2019-05-23T02:49:27.931Z,68.54
2019-05-23T02:54:36.977Z,67.99
2019-05-23T02:59:46.503Z,68.23
2019-05-23T03:04:52.789Z,68.14
2019-05-23T03:09:59.182Z,68.13
2019-05-23T03:15:04.600Z,67.98
2019-05-23T03:26:31.211Z,68.26
2019-05-23T03:31:54.385Z,68.70
2019-05-23T03:43:44.789Z,68.14
2019-05-23T03:48:58.257Z,68.25
2019-05-23T03:54:06.008Z,68.04
2019-05-23T03:59:12.917Z,68.04
2019-05-23T04:04:18.378Z,67.32
2019-05-23T04:09:23.110Z,67.32
2019-05-23T04:14:27.947Z,67.44
2019-05-23T04:19:33.572Z,67.01
2019-05-23T04:24:44.703Z,67.14
2019-05-23T04:29:53.608Z,67.41
2019-05-23T04:34:59.969Z,67.03
2019-05-23T04:40:09.593Z,66.87
2019-05-23T04:45:15.030Z,67.13
2019-05-23T04:50:20.527Z,67.13
2019-05-23T04:55:25.655Z,66.67
2019-05-23T05:00:33.713Z,67.18
2019-05-23T05:05:39.923Z,67.18
2019-05-23T05:10:49.144Z,66.72
2019-05-23T05:21:56.042Z,67.15
2019-05-23T05:27:01.916Z,66.87
2019-05-23T05:32:07.492Z,66.77
2019-05-23T05:37:12.010Z,66.77
2019-05-23T05:42:20.432Z,66.71
2019-05-23T05:47:28.593Z,66.45
2019-05-23T05:52:43.657Z,66.62
2019-05-23T05:57:48.715Z,66.43
2019-05-23T06:03:04.386Z,66.76
2019-05-23T06:08:07.968Z,66.79
2019-05-23T06:13:16.749Z,66.31
2019-05-23T06:18:23.286Z,66.77
2019-05-23T06:23:46.841Z,58.26
2019-05-23T06:28:51.543Z,61.88
2019-05-23T06:33:55.721Z,62.63
2019-05-23T06:38:59.961Z,63.17
2019-05-23T06:44:05.315Z,63.15
2019-05-23T06:49:09.513Z,63.15
2019-05-23T06:54:13.818Z,65.65
2019-05-23T06:59:18.091Z,64.42
2019-05-23T07:04:22.214Z,65.02
2019-05-23T07:09:26.434Z,66.76
2019-05-23T07:14:32.089Z,66.91
2019-05-23T07:19:36.502Z,62.92
2019-05-23T07:24:56.864Z,61.12
2019-05-23T07:29:46.941Z,60.72
2019-05-23T07:34:51.060Z,60.72
2019-05-23T07:39:55.085Z,60.51
2019-05-23T07:45:00.170Z,60.37
2019-05-23T07:50:04.411Z,60.32
2019-05-23T07:55:14.136Z,60.79
2019-05-23T08:00:24.101Z,60.68
2019-05-23T08:05:29.102Z,60.55
2019-05-23T08:10:34.454Z,60.95
2019-05-23T08:15:38.912Z,60.87
2019-05-23T08:20:43.532Z,61.01
2019-05-23T08:25:48.367Z,61.33
2019-05-23T08:30:52.561Z,60.83
2019-05-23T08:35:57.215Z,60.99
2019-05-23T08:41:01.433Z,60.65
2019-05-23T08:46:06.784Z,60.26
2019-05-23T08:51:12.199Z,60.99
2019-05-23T08:56:19.612Z,60.99
2019-05-23T09:01:22.871Z,60.11
2019-05-23T09:06:27.423Z,60.22
2019-05-23T09:11:33.090Z,60.30
2019-05-23T09:16:37.755Z,60.63
2019-05-23T09:21:42.804Z,60.63
2019-05-23T09:26:47.936Z,60.44
2019-05-23T09:31:52.562Z,60.44
2019-05-23T09:37:00.354Z,60.14
2019-05-23T09:42:03.156Z,59.74
2019-05-23T09:47:07.446Z,59.89
2019-05-23T09:52:12.721Z,59.89
2019-05-23T09:57:17.153Z,59.96
2019-05-23T10:02:21.578Z,59.96
2019-05-23T10:07:26.380Z,59.76
2019-05-23T10:12:30.614Z,59.89
2019-05-23T10:17:34.992Z,59.04
2019-05-23T10:22:39.206Z,59.04
2019-05-23T10:27:43.486Z,59.39
2019-05-23T10:32:47.811Z,59.26
2019-05-23T10:37:52.265Z,59.28
2019-05-23T10:42:56.411Z,56.91
2019-05-23T10:48:01.016Z,58.75
2019-05-23T10:53:05.191Z,58.75
2019-05-23T10:58:09.834Z,59.58
2019-05-23T11:03:14.104Z,59.99
2019-05-23T11:08:19.282Z,60.49
2019-05-23T11:13:23.973Z,60.84
2019-05-23T11:18:28.765Z,60.84
2019-05-23T11:23:40.757Z,61.79
2019-05-23T11:28:45.248Z,62.29
2019-05-23T11:33:49.574Z,60.78
2019-05-23T11:38:53.765Z,60.78
2019-05-23T11:43:58.003Z,60.95
2019-05-23T11:49:03.472Z,60.95
2019-05-23T11:54:10.115Z,60.29
2019-05-23T11:59:14.637Z,60.29
2019-05-23T12:04:20.713Z,59.89
2019-05-23T12:09:26.422Z,60.36
2019-05-23T12:14:30.885Z,59.95
2019-05-23T12:19:35.350Z,59.95
2019-05-23T12:24:39.869Z,59.94
2019-05-23T12:29:44.677Z,59.55
2019-05-23T12:35:09.745Z,59.08
2019-05-23T12:39:58.723Z,58.97
2019-05-23T12:45:03.051Z,58.26
2019-05-23T12:50:11.321Z,57.96
2019-05-23T12:55:15.819Z,58.38
2019-05-23T13:00:35.346Z,58.08
2019-05-23T13:05:40.374Z,57.50
2019-05-23T13:10:44.657Z,57.50
2019-05-23T13:15:50.777Z,57.73
2019-05-23T13:20:59.484Z,57.82
2019-05-23T13:26:02.414Z,57.89
2019-05-23T13:31:06.913Z,57.89
2019-05-23T13:36:11.386Z,58.34
2019-05-23T13:41:15.778Z,58.28
2019-05-23T13:46:22.034Z,57.83
2019-05-23T13:51:26.179Z,57.80
2019-05-23T13:56:30.305Z,57.49
2019-05-23T14:01:34.691Z,57.64
2019-05-23T14:06:39.052Z,56.75
2019-05-23T14:11:44.798Z,58.09
2019-05-23T14:17:16.693Z,58.09
2019-05-23T14:22:21.588Z,58.19
2019-05-23T14:27:33.506Z,58.01
2019-05-23T14:32:45.847Z,57.81
2019-05-23T14:37:52.612Z,57.81
2019-05-23T14:43:14.191Z,57.30
2019-05-23T14:48:32.397Z,57.30
2019-05-23T14:53:39.153Z,56.92
2019-05-23T14:58:43.532Z,56.92
2019-05-23T15:03:48.331Z,56.52
2019-05-23T15:08:52.722Z,56.52
2019-05-23T15:13:57.153Z,55.78
2019-05-23T15:19:01.774Z,55.78
2019-05-23T15:24:05.996Z,54.27
2019-05-23T15:29:10.031Z,54.68
2019-05-23T15:34:14.311Z,54.84
2019-05-23T15:39:20.057Z,54.73
2019-05-23T15:44:28.574Z,54.93
2019-05-23T15:49:30.278Z,54.39
2019-05-23T15:54:51.128Z,55.53
2019-05-23T16:00:08.260Z,55.53
2019-05-23T16:05:13.376Z,55.67
2019-05-23T16:10:18.037Z,55.83
2019-05-23T16:15:23.268Z,57.45
2019-05-23T16:20:27.840Z,57.61
2019-05-23T16:25:32.106Z,58.53
2019-05-23T16:30:37.418Z,58.76
2019-05-23T16:35:42.385Z,58.63
2019-05-23T16:46:21.230Z,58.16
2019-05-23T16:51:25.563Z,58.11
2019-05-23T16:56:37.054Z,57.58
2019-05-23T17:02:06.807Z,57.58
2019-05-23T17:07:29.289Z,56.99
2019-05-23T17:12:55.607Z,57.05
2019-05-23T17:18:08.437Z,57.14
2019-05-23T17:23:31.750Z,57.32
2019-05-23T17:28:39.842Z,56.42
2019-05-23T17:33:48.044Z,56.30
2019-05-23T17:38:53.039Z,56.52
2019-05-23T17:43:57.456Z,56.22
2019-05-23T17:49:01.957Z,56.17
2019-05-23T17:54:06.184Z,56.17
2019-05-23T17:59:10.423Z,53.41
2019-05-23T18:04:15.138Z,51.95
2019-05-23T18:09:21.231Z,53.51
2019-05-23T18:14:25.509Z,53.51
2019-05-23T18:19:30.111Z,54.33
2019-05-23T18:24:34.763Z,54.83
2019-05-23T18:29:38.943Z,54.80
2019-05-23T18:34:44.602Z,54.80
2019-05-23T18:39:48.699Z,54.67
2019-05-23T18:44:52.873Z,55.25
2019-05-23T18:49:57.332Z,55.00
2019-05-23T18:55:01.725Z,55.20
2019-05-23T19:00:10.227Z,55.20
2019-05-23T19:05:15.647Z,55.24
2019-05-23T19:10:20.297Z,55.52
2019-05-23T19:15:24.665Z,56.03
2019-05-23T19:20:28.705Z,56.12
2019-05-23T19:25:33.837Z,56.40
2019-05-23T19:47:04.079Z,57.12
2019-05-23T19:52:08.825Z,57.43
2019-05-23T19:57:15.608Z,57.39
2019-05-23T20:02:40.037Z,57.39
2019-05-23T20:07:52.909Z,57.64
2019-05-23T20:23:42.280Z,58.20
2019-05-23T20:28:46.747Z,58.28
2019-05-23T20:33:51.662Z,58.18
2019-05-23T20:38:56.186Z,58.50
2019-05-23T20:44:03.377Z,58.50
2019-05-23T20:49:11.021Z,58.53
2019-05-23T21:00:23.344Z,58.83
2019-05-23T21:05:27.896Z,59.14
2019-05-23T21:10:46.994Z,59.16
2019-05-23T21:15:53.358Z,59.28
2019-05-23T21:20:59.754Z,59.39
2019-05-23T21:26:06.443Z,59.27
2019-05-23T21:31:15.579Z,59.27
2019-05-23T21:36:20.080Z,59.19
2019-05-23T21:41:36.705Z,59.31
2019-05-23T21:46:41.119Z,58.91
2019-05-23T21:51:45.501Z,58.91
2019-05-23T21:56:49.647Z,59.05
2019-05-23T22:02:13.180Z,59.23
2019-05-23T22:07:17.799Z,59.54
2019-05-23T22:12:22.790Z,59.36
2019-05-23T22:17:27.796Z,59.73
2019-05-23T22:22:32.191Z,59.97
2019-05-23T22:27:36.623Z,59.97
2019-05-23T22:32:41.742Z,60.10
2019-05-23T22:37:46.185Z,60.06
2019-05-23T22:42:50.814Z,60.01
2019-05-23T22:47:55.128Z,60.11
2019-05-23T22:52:59.476Z,60.11
2019-05-23T22:58:03.789Z,60.22
2019-05-23T23:03:08.307Z,60.50
2019-05-23T23:08:12.893Z,60.50
2019-05-23T23:13:17.575Z,60.74
2019-05-23T23:18:22.054Z,60.69
2019-05-23T23:23:26.565Z,60.60
2019-05-23T23:28:31.080Z,61.03
2019-05-23T23:33:35.622Z,61.27
2019-05-23T23:38:40.443Z,61.31
2019-05-23T23:43:58.611Z,61.58
2019-05-23T23:49:08.648Z,61.70
2019-05-23T23:54:31.028Z,61.79
2019-05-23T23:59:34.644Z,62.34
